sensor_id;sensor_type;location;lat;lon;timestamp;P1;durP1;ratioP1;P2;durP2;ratioP2
55035;SDS011;40936;53.008;6.556;2023-02-17T00:03:41;1999.90;;;999.90;;
55035;SDS011;40936;53.008;6.556;2023-02-17T00:06:07;1999.90;;;999.90;;
55035;SDS011;40936;53.008;6.556;2023-02-17T00:08:34;1999.90;;;999.90;;
55035;SDS011;40936;53.008;6.556;2023-02-17T00:11:00;1999.90;;;999.90;;
55035;SDS011;40936;53.008;6.556;2023-02-17T00:13:26;1999.90;;;999.90;;
55035;SDS011;40936;53.008;6.556;2023-02-17T00:15:52;1999.90;;;999.90;;
55035;SDS011;40936;53.008;6.556;2023-02-17T00:18:18;1999.90;;;999.90;;
55035;SDS011;40936;53.008;6.556;2023-02-17T00:20:43;1999.90;;;999.90;;
55035;SDS011;40936;53.008;6.556;2023-02-17T00:23:09;1999.90;;;999.90;;
55035;SDS011;40936;53.008;6.556;2023-02-17T00:25:36;1999.90;;;999.90;;
55035;SDS011;40936;53.008;6.556;2023-02-17T00:28:02;1999.90;;;999.90;;
55035;SDS011;40936;53.008;6.556;2023-02-17T00:30:28;1999.90;;;999.90;;
55035;SDS011;40936;53.008;6.556;2023-02-17T00:32:54;1999.90;;;999.90;;
55035;SDS011;40936;53.008;6.556;2023-02-17T00:35:19;1999.90;;;999.90;;
55035;SDS011;40936;53.008;6.556;2023-02-17T00:37:45;1999.90;;;999.90;;
55035;SDS011;40936;53.008;6.556;2023-02-17T00:40:12;1999.90;;;999.90;;
55035;SDS011;40936;53.008;6.556;2023-02-17T00:42:38;1999.90;;;999.90;;
55035;SDS011;40936;53.008;6.556;2023-02-17T00:45:04;1999.90;;;999.90;;
55035;SDS011;40936;53.008;6.556;2023-02-17T00:47:30;1999.90;;;999.90;;
55035;SDS011;40936;53.008;6.556;2023-02-17T00:49:55;1999.90;;;999.90;;
55035;SDS011;40936;53.008;6.556;2023-02-17T00:52:21;1999.90;;;999.90;;
55035;SDS011;40936;53.008;6.556;2023-02-17T00:54:47;1999.90;;;999.90;;
55035;SDS011;40936;53.008;6.556;2023-02-17T00:57:13;1999.90;;;999.90;;
55035;SDS011;40936;53.008;6.556;2023-02-17T00:59:38;1999.90;;;999.90;;
55035;SDS011;40936;53.008;6.556;2023-02-17T01:02:04;1999.90;;;999.90;;
55035;SDS011;40936;53.008;6.556;2023-02-17T01:04:30;1999.90;;;999.90;;
55035;SDS011;40936;53.008;6.556;2023-02-17T01:06:56;1999.90;;;999.90;;
55035;SDS011;40936;53.008;6.556;2023-02-17T01:09:21;1999.90;;;999.90;;
55035;SDS011;40936;53.008;6.556;2023-02-17T01:11:47;1999.90;;;999.90;;
55035;SDS011;40936;53.008;6.556;2023-02-17T01:14:13;1999.90;;;999.90;;
55035;SDS011;40936;53.008;6.556;2023-02-17T01:16:40;1999.90;;;999.90;;
55035;SDS011;40936;53.008;6.556;2023-02-17T01:19:10;1999.90;;;999.90;;
55035;SDS011;40936;53.008;6.556;2023-02-17T01:21:37;1999.90;;;999.90;;
55035;SDS011;40936;53.008;6.556;2023-02-17T01:24:04;1999.90;;;999.90;;
55035;SDS011;40936;53.008;6.556;2023-02-17T01:26:32;1999.90;;;999.90;;
55035;SDS011;40936;53.008;6.556;2023-02-17T01:28:59;1999.90;;;999.90;;
55035;SDS011;40936;53.008;6.556;2023-02-17T01:31:25;1999.90;;;999.90;;
55035;SDS011;40936;53.008;6.556;2023-02-17T01:33:51;1999.90;;;999.90;;
55035;SDS011;40936;53.008;6.556;2023-02-17T01:36:18;1999.90;;;999.90;;
55035;SDS011;40936;53.008;6.556;2023-02-17T01:38:44;1999.90;;;999.90;;
55035;SDS011;40936;53.008;6.556;2023-02-17T01:41:11;1999.90;;;999.90;;
55035;SDS011;40936;53.008;6.556;2023-02-17T01:43:37;1999.90;;;999.90;;
55035;SDS011;40936;53.008;6.556;2023-02-17T01:46:04;1999.90;;;999.90;;
55035;SDS011;40936;53.008;6.556;2023-02-17T01:51:02;1999.90;;;999.90;;
55035;SDS011;40936;53.008;6.556;2023-02-17T01:53:33;1999.90;;;999.90;;
55035;SDS011;40936;53.008;6.556;2023-02-17T01:56:04;1999.90;;;999.90;;
55035;SDS011;40936;53.008;6.556;2023-02-17T01:58:30;1999.90;;;999.90;;
55035;SDS011;40936;53.008;6.556;2023-02-17T02:00:58;1999.90;;;999.90;;
55035;SDS011;40936;53.008;6.556;2023-02-17T02:03:27;1999.90;;;999.90;;
55035;SDS011;40936;53.008;6.556;2023-02-17T02:05:56;1999.90;;;999.90;;
55035;SDS011;40936;53.008;6.556;2023-02-17T02:08:24;1999.90;;;999.90;;
55035;SDS011;40936;53.008;6.556;2023-02-17T02:10:54;1999.90;;;999.90;;
55035;SDS011;40936;53.008;6.556;2023-02-17T02:13:20;1999.90;;;999.90;;
55035;SDS011;40936;53.008;6.556;2023-02-17T02:15:56;1999.90;;;999.90;;
55035;SDS011;40936;53.008;6.556;2023-02-17T02:24:07;1999.90;;;999.90;;
55035;SDS011;40936;53.008;6.556;2023-02-17T02:32:34;1999.90;;;999.90;;
55035;SDS011;40936;53.008;6.556;2023-02-17T02:38:38;1999.90;;;999.90;;
55035;SDS011;40936;53.008;6.556;2023-02-17T02:41:03;1999.90;;;999.90;;
55035;SDS011;40936;53.008;6.556;2023-02-17T02:43:33;1999.90;;;999.90;;
55035;SDS011;40936;53.008;6.556;2023-02-17T02:45:59;1999.90;;;999.90;;
55035;SDS011;40936;53.008;6.556;2023-02-17T02:48:25;1999.90;;;999.90;;
55035;SDS011;40936;53.008;6.556;2023-02-17T02:53:40;1999.90;;;999.90;;
55035;SDS011;40936;53.008;6.556;2023-02-17T02:56:38;1999.90;;;999.90;;
55035;SDS011;40936;53.008;6.556;2023-02-17T03:01:50;1999.90;;;999.90;;
55035;SDS011;40936;53.008;6.556;2023-02-17T03:04:37;1999.90;;;999.90;;
55035;SDS011;40936;53.008;6.556;2023-02-17T03:09:49;1999.90;;;999.05;;
55035;SDS011;40936;53.008;6.556;2023-02-17T03:12:17;1999.90;;;999.90;;
55035;SDS011;40936;53.008;6.556;2023-02-17T03:14:44;1999.90;;;999.90;;
55035;SDS011;40936;53.008;6.556;2023-02-17T03:17:12;1999.90;;;999.90;;
55035;SDS011;40936;53.008;6.556;2023-02-17T03:19:37;1999.90;;;999.90;;
55035;SDS011;40936;53.008;6.556;2023-02-17T03:22:08;1999.90;;;999.90;;
55035;SDS011;40936;53.008;6.556;2023-02-17T03:24:38;1999.90;;;999.90;;
55035;SDS011;40936;53.008;6.556;2023-02-17T03:27:04;1999.90;;;999.90;;
55035;SDS011;40936;53.008;6.556;2023-02-17T03:29:30;1999.90;;;999.90;;
55035;SDS011;40936;53.008;6.556;2023-02-17T03:31:55;1999.90;;;999.90;;
55035;SDS011;40936;53.008;6.556;2023-02-17T03:34:21;1999.90;;;999.90;;
55035;SDS011;40936;53.008;6.556;2023-02-17T03:36:47;1999.90;;;999.90;;
55035;SDS011;40936;53.008;6.556;2023-02-17T03:39:13;1999.90;;;999.90;;
55035;SDS011;40936;53.008;6.556;2023-02-17T03:41:38;1999.90;;;999.90;;
55035;SDS011;40936;53.008;6.556;2023-02-17T03:44:04;1999.90;;;999.90;;
55035;SDS011;40936;53.008;6.556;2023-02-17T03:46:30;1999.90;;;999.90;;
55035;SDS011;40936;53.008;6.556;2023-02-17T03:48:55;1999.90;;;999.90;;
55035;SDS011;40936;53.008;6.556;2023-02-17T03:51:22;1999.90;;;999.90;;
55035;SDS011;40936;53.008;6.556;2023-02-17T03:53:49;1999.90;;;999.90;;
55035;SDS011;40936;53.008;6.556;2023-02-17T03:56:16;1999.90;;;999.90;;
55035;SDS011;40936;53.008;6.556;2023-02-17T03:58:42;1999.90;;;999.90;;
55035;SDS011;40936;53.008;6.556;2023-02-17T04:01:08;1999.90;;;999.90;;
55035;SDS011;40936;53.008;6.556;2023-02-17T04:03:35;1999.90;;;999.90;;
55035;SDS011;40936;53.008;6.556;2023-02-17T04:06:01;1999.90;;;999.90;;
55035;SDS011;40936;53.008;6.556;2023-02-17T04:08:27;1999.90;;;999.90;;
55035;SDS011;40936;53.008;6.556;2023-02-17T04:10:54;1999.90;;;999.90;;
55035;SDS011;40936;53.008;6.556;2023-02-17T04:13:21;1999.90;;;999.90;;
55035;SDS011;40936;53.008;6.556;2023-02-17T04:15:48;1999.90;;;999.90;;
55035;SDS011;40936;53.008;6.556;2023-02-17T04:18:14;1999.90;;;999.90;;
55035;SDS011;40936;53.008;6.556;2023-02-17T04:20:41;1999.90;;;999.90;;
55035;SDS011;40936;53.008;6.556;2023-02-17T04:23:07;1999.90;;;999.90;;
55035;SDS011;40936;53.008;6.556;2023-02-17T04:25:34;1999.90;;;999.90;;
55035;SDS011;40936;53.008;6.556;2023-02-17T04:28:01;1999.90;;;999.90;;
55035;SDS011;40936;53.008;6.556;2023-02-17T04:30:28;1999.90;;;999.90;;
55035;SDS011;40936;53.008;6.556;2023-02-17T04:32:54;1999.90;;;922.42;;
55035;SDS011;40936;53.008;6.556;2023-02-17T04:35:20;1999.90;;;999.90;;
55035;SDS011;40936;53.008;6.556;2023-02-17T04:37:46;1999.90;;;999.90;;
55035;SDS011;40936;53.008;6.556;2023-02-17T04:40:12;1999.90;;;999.90;;
55035;SDS011;40936;53.008;6.556;2023-02-17T04:42:37;1999.90;;;999.90;;
55035;SDS011;40936;53.008;6.556;2023-02-17T04:45:04;1999.90;;;999.90;;
55035;SDS011;40936;53.008;6.556;2023-02-17T04:47:31;1999.90;;;999.90;;
55035;SDS011;40936;53.008;6.556;2023-02-17T04:49:57;1999.90;;;999.90;;
55035;SDS011;40936;53.008;6.556;2023-02-17T04:52:22;1999.90;;;999.90;;
55035;SDS011;40936;53.008;6.556;2023-02-17T04:54:48;1999.90;;;999.90;;
55035;SDS011;40936;53.008;6.556;2023-02-17T04:57:14;1999.90;;;999.90;;
55035;SDS011;40936;53.008;6.556;2023-02-17T04:59:40;1999.90;;;999.90;;
55035;SDS011;40936;53.008;6.556;2023-02-17T05:02:05;1999.90;;;999.90;;
55035;SDS011;40936;53.008;6.556;2023-02-17T05:04:31;1999.90;;;999.90;;
55035;SDS011;40936;53.008;6.556;2023-02-17T05:06:58;1999.90;;;999.90;;
55035;SDS011;40936;53.008;6.556;2023-02-17T05:09:23;1999.90;;;999.90;;
55035;SDS011;40936;53.008;6.556;2023-02-17T05:11:49;1999.90;;;999.90;;
55035;SDS011;40936;53.008;6.556;2023-02-17T05:14:15;1999.90;;;999.90;;
55035;SDS011;40936;53.008;6.556;2023-02-17T05:16:41;1999.90;;;999.90;;
55035;SDS011;40936;53.008;6.556;2023-02-17T05:19:06;1999.90;;;999.90;;
55035;SDS011;40936;53.008;6.556;2023-02-17T05:21:32;1999.90;;;999.90;;
55035;SDS011;40936;53.008;6.556;2023-02-17T05:23:58;1999.90;;;999.90;;
55035;SDS011;40936;53.008;6.556;2023-02-17T05:26:23;1999.90;;;999.90;;
55035;SDS011;40936;53.008;6.556;2023-02-17T05:28:49;1999.90;;;999.90;;
55035;SDS011;40936;53.008;6.556;2023-02-17T05:31:15;1999.90;;;999.90;;
55035;SDS011;40936;53.008;6.556;2023-02-17T05:33:40;1999.90;;;999.90;;
55035;SDS011;40936;53.008;6.556;2023-02-17T05:36:08;1999.90;;;999.90;;
55035;SDS011;40936;53.008;6.556;2023-02-17T05:38:35;1999.90;;;999.90;;
55035;SDS011;40936;53.008;6.556;2023-02-17T05:41:01;1999.90;;;999.90;;
55035;SDS011;40936;53.008;6.556;2023-02-17T05:43:27;1999.90;;;999.90;;
55035;SDS011;40936;53.008;6.556;2023-02-17T05:45:53;1999.90;;;999.90;;
55035;SDS011;40936;53.008;6.556;2023-02-17T05:48:18;1999.90;;;999.90;;
55035;SDS011;40936;53.008;6.556;2023-02-17T05:50:44;1999.90;;;999.90;;
55035;SDS011;40936;53.008;6.556;2023-02-17T05:53:10;1999.90;;;999.90;;
55035;SDS011;40936;53.008;6.556;2023-02-17T05:55:36;1999.90;;;999.90;;
55035;SDS011;40936;53.008;6.556;2023-02-17T05:58:01;1999.90;;;999.90;;
55035;SDS011;40936;53.008;6.556;2023-02-17T06:00:27;1999.90;;;999.90;;
55035;SDS011;40936;53.008;6.556;2023-02-17T06:02:53;1999.90;;;999.90;;
55035;SDS011;40936;53.008;6.556;2023-02-17T06:05:19;1999.90;;;999.90;;
55035;SDS011;40936;53.008;6.556;2023-02-17T06:07:44;1999.90;;;999.90;;
55035;SDS011;40936;53.008;6.556;2023-02-17T06:10:10;1999.90;;;999.90;;
55035;SDS011;40936;53.008;6.556;2023-02-17T06:12:36;1999.90;;;999.90;;
55035;SDS011;40936;53.008;6.556;2023-02-17T06:15:02;1999.90;;;999.90;;
55035;SDS011;40936;53.008;6.556;2023-02-17T06:17:27;1999.90;;;999.90;;
55035;SDS011;40936;53.008;6.556;2023-02-17T06:19:53;1999.90;;;999.90;;
55035;SDS011;40936;53.008;6.556;2023-02-17T06:22:19;1999.90;;;999.90;;
55035;SDS011;40936;53.008;6.556;2023-02-17T06:24:44;1999.90;;;999.90;;
55035;SDS011;40936;53.008;6.556;2023-02-17T06:27:10;1999.90;;;999.90;;
55035;SDS011;40936;53.008;6.556;2023-02-17T06:29:36;1999.90;;;999.90;;
55035;SDS011;40936;53.008;6.556;2023-02-17T06:32:01;1999.90;;;999.90;;
55035;SDS011;40936;53.008;6.556;2023-02-17T06:34:27;1999.90;;;999.90;;
55035;SDS011;40936;53.008;6.556;2023-02-17T06:36:53;1999.90;;;999.90;;
55035;SDS011;40936;53.008;6.556;2023-02-17T06:39:19;1999.90;;;999.90;;
55035;SDS011;40936;53.008;6.556;2023-02-17T06:41:45;1999.90;;;999.90;;
55035;SDS011;40936;53.008;6.556;2023-02-17T06:44:11;1999.90;;;994.60;;
55035;SDS011;40936;53.008;6.556;2023-02-17T06:46:36;1999.90;;;999.90;;
55035;SDS011;40936;53.008;6.556;2023-02-17T06:49:02;1999.90;;;999.90;;
55035;SDS011;40936;53.008;6.556;2023-02-17T06:51:28;1999.90;;;999.90;;
55035;SDS011;40936;53.008;6.556;2023-02-17T06:53:54;1999.90;;;999.90;;
55035;SDS011;40936;53.008;6.556;2023-02-17T06:56:20;1999.90;;;999.90;;
55035;SDS011;40936;53.008;6.556;2023-02-17T06:58:46;1999.90;;;999.90;;
55035;SDS011;40936;53.008;6.556;2023-02-17T07:01:15;1999.90;;;947.90;;
55035;SDS011;40936;53.008;6.556;2023-02-17T07:03:43;1999.90;;;999.90;;
55035;SDS011;40936;53.008;6.556;2023-02-17T07:06:08;1999.90;;;999.90;;
55035;SDS011;40936;53.008;6.556;2023-02-17T07:08:34;1999.90;;;999.90;;
55035;SDS011;40936;53.008;6.556;2023-02-17T07:11:03;1999.90;;;999.90;;
55035;SDS011;40936;53.008;6.556;2023-02-17T07:13:30;1999.90;;;999.90;;
55035;SDS011;40936;53.008;6.556;2023-02-17T07:15:56;1999.90;;;999.90;;
55035;SDS011;40936;53.008;6.556;2023-02-17T07:18:22;1999.90;;;999.90;;
55035;SDS011;40936;53.008;6.556;2023-02-17T07:20:47;1999.90;;;999.90;;
55035;SDS011;40936;53.008;6.556;2023-02-17T07:23:13;1999.90;;;999.90;;
55035;SDS011;40936;53.008;6.556;2023-02-17T07:25:39;1999.90;;;999.90;;
55035;SDS011;40936;53.008;6.556;2023-02-17T07:28:05;1999.90;;;999.90;;
55035;SDS011;40936;53.008;6.556;2023-02-17T07:30:30;1999.90;;;999.90;;
55035;SDS011;40936;53.008;6.556;2023-02-17T07:32:56;1999.90;;;999.90;;
55035;SDS011;40936;53.008;6.556;2023-02-17T07:35:22;1999.90;;;999.90;;
55035;SDS011;40936;53.008;6.556;2023-02-17T07:37:47;1999.90;;;999.90;;
55035;SDS011;40936;53.008;6.556;2023-02-17T07:40:15;1999.90;;;999.90;;
55035;SDS011;40936;53.008;6.556;2023-02-17T07:42:41;1999.90;;;961.63;;
55035;SDS011;40936;53.008;6.556;2023-02-17T07:45:07;1999.90;;;999.90;;
55035;SDS011;40936;53.008;6.556;2023-02-17T07:47:32;1999.90;;;999.90;;
55035;SDS011;40936;53.008;6.556;2023-02-17T07:49:58;1999.90;;;966.10;;
55035;SDS011;40936;53.008;6.556;2023-02-17T07:52:24;1999.90;;;999.90;;
55035;SDS011;40936;53.008;6.556;2023-02-17T07:54:50;1999.90;;;999.90;;
55035;SDS011;40936;53.008;6.556;2023-02-17T07:57:15;1999.90;;;999.90;;
55035;SDS011;40936;53.008;6.556;2023-02-17T07:59:41;1999.90;;;999.90;;
55035;SDS011;40936;53.008;6.556;2023-02-17T08:02:08;1999.90;;;999.90;;
55035;SDS011;40936;53.008;6.556;2023-02-17T08:04:35;1999.90;;;999.90;;
55035;SDS011;40936;53.008;6.556;2023-02-17T08:07:01;1999.90;;;999.90;;
55035;SDS011;40936;53.008;6.556;2023-02-17T08:09:26;1999.90;;;998.28;;
55035;SDS011;40936;53.008;6.556;2023-02-17T08:12:14;1999.90;;;999.90;;
55035;SDS011;40936;53.008;6.556;2023-02-17T08:17:26;1999.90;;;908.95;;
55035;SDS011;40936;53.008;6.556;2023-02-17T08:19:53;1999.90;;;849.77;;
55035;SDS011;40936;53.008;6.556;2023-02-17T08:22:19;1999.90;;;692.65;;
55035;SDS011;40936;53.008;6.556;2023-02-17T08:24:45;1999.90;;;991.00;;
55035;SDS011;40936;53.008;6.556;2023-02-17T08:27:11;1999.90;;;599.22;;
55035;SDS011;40936;53.008;6.556;2023-02-17T08:29:38;1999.90;;;999.90;;
55035;SDS011;40936;53.008;6.556;2023-02-17T08:32:05;1999.90;;;999.90;;
55035;SDS011;40936;53.008;6.556;2023-02-17T08:34:30;1999.90;;;720.55;;
55035;SDS011;40936;53.008;6.556;2023-02-17T08:36:59;1999.90;;;999.90;;
55035;SDS011;40936;53.008;6.556;2023-02-17T08:39:25;1999.90;;;557.78;;
55035;SDS011;40936;53.008;6.556;2023-02-17T08:41:52;1999.90;;;704.38;;
55035;SDS011;40936;53.008;6.556;2023-02-17T08:44:19;1999.90;;;682.00;;
55035;SDS011;40936;53.008;6.556;2023-02-17T08:46:46;1999.90;;;999.90;;
55035;SDS011;40936;53.008;6.556;2023-02-17T08:49:17;1999.90;;;850.33;;
55035;SDS011;40936;53.008;6.556;2023-02-17T08:51:47;1999.90;;;870.17;;
55035;SDS011;40936;53.008;6.556;2023-02-17T08:54:14;1999.90;;;674.47;;
55035;SDS011;40936;53.008;6.556;2023-02-17T08:56:40;1999.90;;;786.85;;
55035;SDS011;40936;53.008;6.556;2023-02-17T08:59:07;1999.90;;;484.67;;
55035;SDS011;40936;53.008;6.556;2023-02-17T09:01:35;1999.90;;;999.90;;
55035;SDS011;40936;53.008;6.556;2023-02-17T09:04:02;1999.90;;;999.90;;
55035;SDS011;40936;53.008;6.556;2023-02-17T09:06:32;1999.90;;;999.90;;
55035;SDS011;40936;53.008;6.556;2023-02-17T09:09:04;1999.90;;;999.90;;
55035;SDS011;40936;53.008;6.556;2023-02-17T09:11:31;1999.90;;;805.25;;
55035;SDS011;40936;53.008;6.556;2023-02-17T09:13:56;1999.90;;;839.30;;
55035;SDS011;40936;53.008;6.556;2023-02-17T09:16:22;1999.90;;;760.85;;
55035;SDS011;40936;53.008;6.556;2023-02-17T09:18:50;1999.90;;;764.95;;
55035;SDS011;40936;53.008;6.556;2023-02-17T09:21:16;1999.90;;;999.90;;
55035;SDS011;40936;53.008;6.556;2023-02-17T09:23:42;1999.90;;;833.28;;
55035;SDS011;40936;53.008;6.556;2023-02-17T09:26:09;1999.90;;;840.38;;
55035;SDS011;40936;53.008;6.556;2023-02-17T09:28:36;1999.90;;;999.90;;
55035;SDS011;40936;53.008;6.556;2023-02-17T09:31:10;1999.90;;;999.90;;
55035;SDS011;40936;53.008;6.556;2023-02-17T09:33:38;1999.90;;;999.90;;
55035;SDS011;40936;53.008;6.556;2023-02-17T09:36:05;1999.90;;;599.67;;
55035;SDS011;40936;53.008;6.556;2023-02-17T09:38:33;1999.90;;;904.88;;
55035;SDS011;40936;53.008;6.556;2023-02-17T09:41:01;1999.90;;;669.03;;
55035;SDS011;40936;53.008;6.556;2023-02-17T09:43:39;1999.90;;;999.90;;
55035;SDS011;40936;53.008;6.556;2023-02-17T09:46:07;1999.90;;;902.97;;
55035;SDS011;40936;53.008;6.556;2023-02-17T09:48:36;1999.90;;;999.90;;
55035;SDS011;40936;53.008;6.556;2023-02-17T09:51:05;1999.90;;;884.05;;
55035;SDS011;40936;53.008;6.556;2023-02-17T09:53:40;1999.90;;;789.38;;
55035;SDS011;40936;53.008;6.556;2023-02-17T09:56:21;1999.90;;;848.30;;
55035;SDS011;40936;53.008;6.556;2023-02-17T09:58:54;1999.90;;;964.35;;
55035;SDS011;40936;53.008;6.556;2023-02-17T10:01:33;1999.90;;;789.17;;
55035;SDS011;40936;53.008;6.556;2023-02-17T10:04:07;1999.90;;;820.67;;
55035;SDS011;40936;53.008;6.556;2023-02-17T10:06:39;1999.90;;;953.75;;
55035;SDS011;40936;53.008;6.556;2023-02-17T10:09:23;1999.90;;;858.55;;
55035;SDS011;40936;53.008;6.556;2023-02-17T10:12:02;1999.90;;;916.42;;
55035;SDS011;40936;53.008;6.556;2023-02-17T10:20:41;1999.90;;;709.08;;
55035;SDS011;40936;53.008;6.556;2023-02-17T10:23:27;1999.90;;;803.03;;
55035;SDS011;40936;53.008;6.556;2023-02-17T10:28:52;1999.90;;;999.90;;
55035;SDS011;40936;53.008;6.556;2023-02-17T10:31:30;1999.90;;;991.75;;
55035;SDS011;40936;53.008;6.556;2023-02-17T10:34:11;1999.90;;;999.90;;
55035;SDS011;40936;53.008;6.556;2023-02-17T10:39:36;1999.90;;;902.70;;
55035;SDS011;40936;53.008;6.556;2023-02-17T10:42:07;1999.90;;;863.72;;
55035;SDS011;40936;53.008;6.556;2023-02-17T10:44:52;1999.90;;;825.53;;
55035;SDS011;40936;53.008;6.556;2023-02-17T10:47:24;1999.90;;;874.17;;
55035;SDS011;40936;53.008;6.556;2023-02-17T10:49:51;1999.90;;;876.92;;
55035;SDS011;40936;53.008;6.556;2023-02-17T10:52:23;1999.90;;;946.17;;
55035;SDS011;40936;53.008;6.556;2023-02-17T10:54:59;1999.90;;;870.22;;
55035;SDS011;40936;53.008;6.556;2023-02-17T10:57:37;1999.90;;;999.90;;
55035;SDS011;40936;53.008;6.556;2023-02-17T11:00:05;1999.90;;;947.92;;
55035;SDS011;40936;53.008;6.556;2023-02-17T11:02:38;1999.90;;;861.58;;
55035;SDS011;40936;53.008;6.556;2023-02-17T11:05:06;1999.90;;;998.58;;
55035;SDS011;40936;53.008;6.556;2023-02-17T11:07:39;1999.90;;;999.90;;
55035;SDS011;40936;53.008;6.556;2023-02-17T11:12:59;1999.90;;;999.90;;
55035;SDS011;40936;53.008;6.556;2023-02-17T11:17:55;1999.90;;;999.90;;
55035;SDS011;40936;53.008;6.556;2023-02-17T11:20:31;1999.90;;;926.15;;
55035;SDS011;40936;53.008;6.556;2023-02-17T11:23:06;1999.90;;;969.30;;
55035;SDS011;40936;53.008;6.556;2023-02-17T11:25:55;1999.90;;;999.90;;
55035;SDS011;40936;53.008;6.556;2023-02-17T11:28:23;1999.90;;;999.90;;
55035;SDS011;40936;53.008;6.556;2023-02-17T11:30:58;1999.90;;;998.95;;
55035;SDS011;40936;53.008;6.556;2023-02-17T11:36:05;1999.90;;;999.90;;
55035;SDS011;40936;53.008;6.556;2023-02-17T11:41:04;1999.90;;;999.90;;
55035;SDS011;40936;53.008;6.556;2023-02-17T11:43:31;1999.90;;;935.35;;
55035;SDS011;40936;53.008;6.556;2023-02-17T11:46:05;1999.90;;;822.83;;
55035;SDS011;40936;53.008;6.556;2023-02-17T11:51:41;1999.90;;;866.75;;
55035;SDS011;40936;53.008;6.556;2023-02-17T11:54:34;1999.90;;;888.70;;
55035;SDS011;40936;53.008;6.556;2023-02-17T11:59:51;1999.90;;;962.45;;
55035;SDS011;40936;53.008;6.556;2023-02-17T12:05:48;1999.90;;;955.67;;
55035;SDS011;40936;53.008;6.556;2023-02-17T12:14:13;1999.90;;;987.65;;
55035;SDS011;40936;53.008;6.556;2023-02-17T12:22:27;1999.90;;;999.90;;
55035;SDS011;40936;53.008;6.556;2023-02-17T12:30:21;1999.90;;;822.97;;
55035;SDS011;40936;53.008;6.556;2023-02-17T12:35:45;1999.90;;;951.55;;
55035;SDS011;40936;53.008;6.556;2023-02-17T12:38:28;1999.90;;;999.90;;
55035;SDS011;40936;53.008;6.556;2023-02-17T12:41:02;1999.90;;;997.58;;
55035;SDS011;40936;53.008;6.556;2023-02-17T12:46:14;1999.90;;;835.75;;
55035;SDS011;40936;53.008;6.556;2023-02-17T12:48:50;1999.90;;;999.90;;
55035;SDS011;40936;53.008;6.556;2023-02-17T12:51:31;1999.90;;;999.90;;
55035;SDS011;40936;53.008;6.556;2023-02-17T12:54:09;1999.90;;;981.22;;
55035;SDS011;40936;53.008;6.556;2023-02-17T12:59:17;1999.90;;;999.90;;
55035;SDS011;40936;53.008;6.556;2023-02-17T13:02:00;1999.90;;;859.55;;
55035;SDS011;40936;53.008;6.556;2023-02-17T13:04:28;1999.90;;;860.03;;
55035;SDS011;40936;53.008;6.556;2023-02-17T13:09:40;1999.90;;;999.08;;
55035;SDS011;40936;53.008;6.556;2023-02-17T13:12:10;1999.90;;;999.53;;
55035;SDS011;40936;53.008;6.556;2023-02-17T13:14:52;1999.90;;;890.97;;
55035;SDS011;40936;53.008;6.556;2023-02-17T13:20:22;1999.90;;;957.63;;
55035;SDS011;40936;53.008;6.556;2023-02-17T13:23:02;1999.90;;;904.75;;
55035;SDS011;40936;53.008;6.556;2023-02-17T13:25:31;1999.90;;;999.90;;
55035;SDS011;40936;53.008;6.556;2023-02-17T13:28:00;1999.90;;;923.42;;
55035;SDS011;40936;53.008;6.556;2023-02-17T13:33:27;1999.90;;;988.67;;
55035;SDS011;40936;53.008;6.556;2023-02-17T13:35:54;1999.90;;;879.67;;
55035;SDS011;40936;53.008;6.556;2023-02-17T13:38:29;1999.90;;;942.10;;
55035;SDS011;40936;53.008;6.556;2023-02-17T13:41:00;1999.90;;;622.25;;
55035;SDS011;40936;53.008;6.556;2023-02-17T13:43:30;1999.90;;;800.85;;
55035;SDS011;40936;53.008;6.556;2023-02-17T13:46:05;1999.90;;;713.15;;
55035;SDS011;40936;53.008;6.556;2023-02-17T13:48:32;1999.90;;;862.30;;
55035;SDS011;40936;53.008;6.556;2023-02-17T13:51:00;1999.90;;;924.92;;
55035;SDS011;40936;53.008;6.556;2023-02-17T13:53:28;1999.90;;;986.80;;
55035;SDS011;40936;53.008;6.556;2023-02-17T13:55:58;1999.90;;;785.85;;
55035;SDS011;40936;53.008;6.556;2023-02-17T13:58:28;1999.90;;;802.85;;
55035;SDS011;40936;53.008;6.556;2023-02-17T14:00:59;1999.90;;;727.88;;
55035;SDS011;40936;53.008;6.556;2023-02-17T14:06:08;1999.90;;;727.28;;
55035;SDS011;40936;53.008;6.556;2023-02-17T14:08:37;1999.90;;;948.92;;
55035;SDS011;40936;53.008;6.556;2023-02-17T14:13:38;1999.90;;;736.83;;
55035;SDS011;40936;53.008;6.556;2023-02-17T14:16:26;1999.90;;;743.28;;
55035;SDS011;40936;53.008;6.556;2023-02-17T14:21:33;1999.90;;;687.00;;
55035;SDS011;40936;53.008;6.556;2023-02-17T14:24:01;1999.90;;;516.90;;
55035;SDS011;40936;53.008;6.556;2023-02-17T14:26:38;1999.90;;;722.90;;
55035;SDS011;40936;53.008;6.556;2023-02-17T14:29:09;1999.90;;;702.20;;
55035;SDS011;40936;53.008;6.556;2023-02-17T14:31:48;1999.90;;;645.08;;
55035;SDS011;40936;53.008;6.556;2023-02-17T14:34:28;1999.90;;;474.77;;
55035;SDS011;40936;53.008;6.556;2023-02-17T14:37:06;1999.90;;;455.67;;
55035;SDS011;40936;53.008;6.556;2023-02-17T14:39:42;1999.90;;;470.13;;
55035;SDS011;40936;53.008;6.556;2023-02-17T14:42:08;1999.90;;;812.53;;
55035;SDS011;40936;53.008;6.556;2023-02-17T14:44:33;1999.90;;;404.75;;
55035;SDS011;40936;53.008;6.556;2023-02-17T14:46:59;1999.90;;;816.90;;
55035;SDS011;40936;53.008;6.556;2023-02-17T14:49:25;1999.90;;;752.85;;
55035;SDS011;40936;53.008;6.556;2023-02-17T14:51:51;1999.90;;;844.72;;
55035;SDS011;40936;53.008;6.556;2023-02-17T14:54:16;1999.90;;;590.70;;
55035;SDS011;40936;53.008;6.556;2023-02-17T14:59:29;1999.90;;;608.40;;
55035;SDS011;40936;53.008;6.556;2023-02-17T15:01:55;1999.90;;;505.08;;
55035;SDS011;40936;53.008;6.556;2023-02-17T15:04:21;1999.90;;;627.15;;
55035;SDS011;40936;53.008;6.556;2023-02-17T15:06:47;1999.90;;;651.22;;
55035;SDS011;40936;53.008;6.556;2023-02-17T15:09:16;1999.90;;;763.05;;
55035;SDS011;40936;53.008;6.556;2023-02-17T15:11:47;1999.90;;;762.00;;
55035;SDS011;40936;53.008;6.556;2023-02-17T15:14:14;1999.90;;;869.97;;
55035;SDS011;40936;53.008;6.556;2023-02-17T15:16:42;1999.90;;;634.85;;
55035;SDS011;40936;53.008;6.556;2023-02-17T15:19:09;1999.90;;;673.78;;
55035;SDS011;40936;53.008;6.556;2023-02-17T15:21:41;1999.90;;;741.38;;
55035;SDS011;40936;53.008;6.556;2023-02-17T15:24:19;1999.90;;;715.55;;
55035;SDS011;40936;53.008;6.556;2023-02-17T15:26:50;1999.90;;;700.93;;
55035;SDS011;40936;53.008;6.556;2023-02-17T15:31:43;1999.90;;;461.80;;
55035;SDS011;40936;53.008;6.556;2023-02-17T15:34:14;1999.90;;;682.80;;
55035;SDS011;40936;53.008;6.556;2023-02-17T15:36:41;1999.90;;;574.50;;
55035;SDS011;40936;53.008;6.556;2023-02-17T15:39:15;1999.90;;;671.08;;
55035;SDS011;40936;53.008;6.556;2023-02-17T15:41:43;1999.90;;;645.67;;